Main page
METAR-TAF:

METAR-TAF

Airports :

Santa Maria Airport

Santa Maria, Rio Grande do Sul, Brazil

latitude: 29-43S, longitude: 053-42W, elevation: 85 m

Current weather observation

The report was made 20 minutes ago, at 12:00 UTC
Wind 10 kt from the East
Temperature 23°C
Humidity 89%
Pressure 1014 hPa
Visibility 10 km or more
Few clouds at a height of 1000 ft

METAR: SBSM 011200Z 10010KT 9999 FEW010 23/21 Q1014

Time: 09:20 (12:20 UTC)

Forecast

Forecast valid from 01 at 03 UTC to 02 at 00 UTC
Wind 5 kt from the East
Visibility 10 km or more
no clouds below 1500 m and no cumulonimbus
Becoming
from 01 at 10 UTC to 01 at 12 UTC
Wind 10 kt from the East/Southeast
Visibility: 8000 m
Scattered clouds at a height of 2000 ft

TAF: SBSM 010300 0106/0118 09005KT CAVOK TN21/0106Z TX32/0117Z BECMG 0110/0112 11010KT 8000 SCT020 RMK PAZ

Weather observations and forecasts of more than 4000 airports (METAR and TAF reports).

The available stations are represented by yellow and red dots on the map.

Hover mouse over dot to see the name of the station.

Then click to see weather observations and forecasts.

To change the map : click on the green buttons with a black cross to zoom in, on the green button with a dash to zoom out, or on the green arrows for adjacent maps.


METAR-TAF: